createdAt,value
2022-11-05T00:00:49.161Z,16.15
2022-11-05T00:03:36.572Z,15.02
2022-11-05T00:06:25.125Z,18.25
2022-11-05T00:09:11.018Z,32.80
2022-11-05T00:11:56.901Z,36.67
2022-11-05T00:14:42.861Z,66.80
2022-11-05T00:17:12.055Z,65.68
2022-11-05T00:19:42.119Z,42.03
2022-11-05T00:22:28.070Z,41.38
2022-11-05T00:25:14.210Z,26.77
2022-11-05T00:27:43.070Z,15.80
2022-11-05T00:30:12.600Z,12.95
2022-11-05T00:32:41.295Z,14.25
2022-11-05T00:35:11.982Z,14.85
2022-11-05T00:37:43.234Z,17.48
2022-11-05T00:40:16.164Z,14.18
2022-11-05T00:43:03.262Z,12.40
2022-11-05T00:45:33.714Z,19.15
2022-11-05T00:48:19.588Z,12.65
2022-11-05T00:50:51.337Z,23.83
2022-11-05T00:53:20.363Z,8.50
2022-11-05T00:55:49.053Z,6.60
2022-11-05T00:58:20.551Z,25.95
2022-11-05T01:00:51.992Z,57.40
2022-11-05T01:03:22.336Z,53.83
2022-11-05T01:05:54.722Z,43.80
2022-11-05T01:08:25.236Z,25.20
2022-11-05T01:10:56.206Z,16.88
2022-11-05T01:13:27.158Z,11.65
2022-11-05T01:15:56.741Z,9.55
2022-11-05T01:18:25.967Z,8.38
2022-11-05T01:20:56.300Z,15.23
2022-11-05T01:23:25.916Z,32.20
2022-11-05T01:25:54.489Z,81.80
2022-11-05T01:28:23.089Z,56.00
2022-11-05T01:30:57.367Z,92.68
2022-11-05T01:33:27.622Z,75.53
2022-11-05T01:35:58.677Z,55.15
2022-11-05T01:38:27.418Z,27.40
2022-11-05T01:40:56.222Z,14.90
2022-11-05T01:43:26.862Z,6.63
2022-11-05T01:45:59.388Z,5.93
2022-11-05T01:48:34.292Z,5.82
2022-11-05T01:51:08.713Z,8.80
2022-11-05T01:53:42.479Z,24.42
2022-11-05T01:56:14.384Z,42.90
2022-11-05T01:58:50.359Z,20.70
2022-11-05T02:01:19.812Z,20.10
2022-11-05T02:03:51.922Z,22.95
2022-11-05T02:06:23.044Z,22.08
2022-11-05T02:08:58.854Z,22.17
2022-11-05T02:11:28.609Z,21.20
2022-11-05T02:13:57.599Z,16.10
2022-11-05T02:16:37.230Z,15.95
2022-11-05T02:19:25.078Z,14.98
2022-11-05T02:22:25.015Z,12.27
2022-11-05T02:25:19.436Z,6.43
2022-11-05T02:28:18.767Z,5.35
2022-11-05T02:30:56.630Z,26.10
2022-11-05T02:33:40.264Z,46.40
2022-11-05T02:36:21.791Z,75.60
2022-11-05T02:39:00.365Z,34.55
2022-11-05T02:41:37.464Z,22.88
2022-11-05T02:44:17.397Z,33.65
2022-11-05T02:46:56.726Z,22.27
2022-11-05T02:49:42.803Z,18.10
2022-11-05T02:52:17.853Z,16.00
2022-11-05T02:54:53.307Z,16.48
2022-11-05T02:57:24.686Z,15.65
2022-11-05T03:00:02.637Z,17.13
2022-11-05T03:02:34.220Z,22.77
2022-11-05T03:05:04.323Z,20.05
2022-11-05T03:07:43.377Z,12.32
2022-11-05T03:10:26.916Z,16.75
2022-11-05T03:13:07.773Z,17.80
2022-11-05T03:15:49.577Z,55.25
2022-11-05T03:18:28.032Z,28.88
2022-11-05T03:21:04.628Z,23.60
2022-11-05T03:23:39.450Z,16.00
2022-11-05T03:26:13.764Z,20.70
2022-11-05T03:28:47.312Z,14.65
2022-11-05T03:31:17.995Z,11.10
2022-11-05T03:33:49.823Z,7.03
2022-11-05T03:36:23.312Z,4.40
2022-11-05T03:38:56.727Z,4.63
2022-11-05T03:41:26.810Z,2.72
2022-11-05T03:44:00.086Z,3.03
2022-11-05T03:46:32.311Z,2.50
2022-11-05T03:49:06.167Z,2.75
2022-11-05T03:51:44.328Z,2.72
2022-11-05T03:54:13.618Z,3.03
2022-11-05T03:56:50.666Z,2.42
2022-11-05T03:59:20.083Z,2.63
2022-11-05T04:01:51.215Z,2.72
2022-11-05T04:04:22.129Z,2.80
2022-11-05T04:07:07.948Z,3.22
2022-11-05T04:09:59.628Z,2.83
2022-11-05T04:12:45.791Z,4.18
2022-11-05T04:15:14.439Z,4.30
2022-11-05T04:17:42.810Z,6.63
2022-11-05T04:20:29.824Z,6.10
2022-11-05T04:23:20.911Z,4.07
2022-11-05T04:25:49.313Z,6.45
2022-11-05T04:28:18.273Z,4.28
2022-11-05T04:30:45.612Z,3.88
2022-11-05T04:33:16.808Z,4.07
2022-11-05T04:35:49.285Z,3.30
2022-11-05T04:38:20.003Z,3.83
2022-11-05T04:40:49.403Z,4.18
2022-11-05T04:43:20.247Z,7.03
2022-11-05T04:45:49.401Z,7.22
2022-11-05T04:48:17.778Z,6.22
2022-11-05T04:50:47.680Z,6.30
2022-11-05T04:53:16.494Z,4.68
2022-11-05T04:55:44.766Z,4.55
2022-11-05T04:58:13.130Z,4.15
2022-11-05T05:00:41.433Z,4.20
2022-11-05T05:03:10.306Z,4.53
2022-11-05T05:05:39.176Z,5.47
2022-11-05T05:08:09.018Z,5.15
2022-11-05T05:10:37.427Z,5.43
2022-11-05T05:13:05.787Z,4.68
2022-11-05T05:15:34.275Z,4.97
2022-11-05T05:18:02.855Z,5.53
2022-11-05T05:21:00.167Z,7.03
2022-11-05T05:23:30.115Z,5.45
2022-11-05T05:26:01.246Z,5.80
2022-11-05T05:28:29.831Z,5.78
2022-11-05T05:31:00.402Z,6.35
2022-11-05T05:33:29.901Z,6.43
2022-11-05T05:35:59.974Z,6.28
2022-11-05T05:38:30.137Z,6.03
2022-11-05T05:41:00.998Z,5.90
2022-11-05T05:43:31.638Z,5.97
2022-11-05T05:46:04.200Z,6.10
2022-11-05T05:48:32.883Z,6.53
2022-11-05T05:51:03.031Z,6.47
2022-11-05T05:53:34.137Z,5.50
2022-11-05T05:56:03.291Z,5.78
2022-11-05T05:58:35.658Z,5.45
2022-11-05T06:01:05.260Z,6.07
2022-11-05T06:03:33.905Z,4.65
2022-11-05T06:06:03.457Z,4.45
2022-11-05T06:08:33.313Z,5.60
2022-11-05T06:11:02.492Z,5.97
2022-11-05T06:13:32.095Z,6.00
2022-11-05T06:16:03.275Z,5.55
2022-11-05T06:18:32.022Z,4.72
2022-11-05T06:21:03.522Z,5.18
2022-11-05T06:23:34.172Z,5.15
2022-11-05T06:26:04.642Z,5.07
2022-11-05T06:28:35.245Z,5.00
2022-11-05T06:31:03.957Z,5.15
2022-11-05T06:33:32.522Z,5.60
2022-11-05T06:36:02.029Z,5.25
2022-11-05T06:38:32.970Z,5.25
2022-11-05T06:41:09.885Z,5.40
2022-11-05T06:43:39.261Z,5.18
2022-11-05T06:46:07.946Z,5.30
2022-11-05T06:48:36.870Z,5.53
2022-11-05T06:51:06.241Z,5.60
2022-11-05T06:53:34.971Z,5.00
2022-11-05T06:56:06.616Z,5.28
2022-11-05T06:58:35.922Z,5.32
2022-11-05T07:01:06.114Z,4.72
2022-11-05T07:03:34.649Z,4.68
2022-11-05T07:06:04.838Z,5.20
2022-11-05T07:08:33.971Z,5.32
2022-11-05T07:11:02.845Z,5.45
2022-11-05T07:13:34.827Z,6.78
2022-11-05T07:16:03.305Z,6.40
2022-11-05T07:18:31.686Z,6.50
2022-11-05T07:21:01.096Z,7.20
2022-11-05T07:23:29.578Z,7.72
2022-11-05T07:25:57.937Z,6.75
2022-11-05T07:28:26.738Z,7.65
2022-11-05T07:30:56.877Z,9.35
2022-11-05T07:33:25.834Z,7.50
2022-11-05T07:35:54.730Z,7.22
2022-11-05T07:38:23.218Z,6.15
2022-11-05T07:40:52.125Z,8.30
2022-11-05T07:43:20.520Z,8.38
2022-11-05T07:45:49.142Z,7.95
2022-11-05T07:48:20.081Z,7.57
2022-11-05T07:50:52.414Z,7.88
2022-11-05T07:53:21.500Z,7.65
2022-11-05T07:55:49.813Z,9.15
2022-11-05T07:58:18.718Z,7.88
2022-11-05T08:00:47.261Z,8.32
2022-11-05T08:03:18.361Z,7.15
2022-11-05T08:05:50.150Z,9.07
2022-11-05T08:08:20.959Z,7.78
2022-11-05T08:10:50.129Z,7.18
2022-11-05T08:13:19.954Z,7.13
2022-11-05T08:15:48.554Z,7.93
2022-11-05T08:18:18.785Z,8.45
2022-11-05T08:20:49.912Z,8.55
2022-11-05T08:23:18.520Z,9.68
2022-11-05T08:25:46.984Z,8.50
2022-11-05T08:28:15.706Z,8.20
2022-11-05T08:30:44.589Z,7.80
2022-11-05T08:33:16.254Z,9.18
2022-11-05T08:35:46.149Z,9.05
2022-11-05T08:38:17.643Z,7.63
2022-11-05T08:40:48.736Z,7.22
2022-11-05T08:43:17.747Z,7.30
2022-11-05T08:45:48.125Z,7.45
2022-11-05T08:48:19.345Z,7.43
2022-11-05T08:50:49.575Z,6.78
2022-11-05T08:53:19.695Z,7.05
2022-11-05T08:55:50.179Z,6.50
2022-11-05T08:58:20.594Z,7.70
2022-11-05T09:00:50.925Z,7.20
2022-11-05T09:03:20.536Z,7.00
2022-11-05T09:05:49.046Z,8.27
2022-11-05T09:08:20.610Z,7.80
2022-11-05T09:10:50.691Z,7.72
2022-11-05T09:13:20.465Z,8.88
2022-11-05T09:15:49.817Z,9.00
2022-11-05T09:18:19.519Z,7.90
2022-11-05T09:20:48.910Z,8.75
2022-11-05T09:23:19.328Z,8.13
2022-11-05T09:25:48.642Z,8.88
2022-11-05T09:28:18.940Z,8.15
2022-11-05T09:30:48.990Z,7.53
2022-11-05T09:33:18.793Z,8.05
2022-11-05T09:35:48.250Z,9.20
2022-11-05T09:38:17.748Z,8.57
2022-11-05T09:40:56.298Z,9.77
2022-11-05T09:43:31.664Z,8.95
2022-11-05T09:46:04.838Z,9.25
2022-11-05T09:48:36.452Z,8.88
2022-11-05T09:51:07.478Z,9.55
2022-11-05T09:53:41.221Z,9.05
2022-11-05T09:56:23.162Z,10.85
2022-11-05T09:59:00.091Z,9.13
2022-11-05T10:01:32.705Z,10.23
2022-11-05T10:04:04.358Z,9.90
2022-11-05T10:06:33.444Z,9.40
2022-11-05T10:09:07.377Z,9.95
2022-11-05T10:11:45.901Z,10.38
2022-11-05T10:14:21.641Z,10.20
2022-11-05T10:16:55.876Z,10.45
2022-11-05T10:19:27.432Z,9.63
2022-11-05T10:22:07.180Z,8.77
2022-11-05T10:24:36.461Z,9.13
2022-11-05T10:27:07.739Z,8.73
2022-11-05T10:29:37.408Z,10.10
2022-11-05T10:32:08.071Z,10.45
2022-11-05T10:34:40.142Z,9.75
2022-11-05T10:37:09.238Z,10.15
2022-11-05T10:39:38.152Z,9.45
2022-11-05T10:42:29.356Z,9.43
2022-11-05T10:45:07.123Z,9.18
2022-11-05T10:48:03.057Z,9.18
2022-11-05T10:50:32.673Z,8.95
2022-11-05T10:53:04.114Z,11.07
2022-11-05T10:55:35.954Z,10.38
2022-11-05T10:58:30.588Z,9.90
2022-11-05T11:01:05.795Z,9.30
2022-11-05T11:03:39.005Z,8.93
2022-11-05T11:06:18.947Z,9.33
2022-11-05T11:08:48.937Z,7.45
2022-11-05T11:11:29.027Z,8.90
2022-11-05T11:14:05.246Z,9.10
2022-11-05T11:16:41.723Z,8.52
2022-11-05T11:19:27.542Z,8.82
2022-11-05T11:22:19.254Z,9.70
2022-11-05T11:24:50.599Z,9.38
2022-11-05T11:27:24.525Z,9.65
2022-11-05T11:30:08.247Z,8.57
2022-11-05T11:32:40.994Z,8.27
2022-11-05T11:35:27.176Z,8.52
2022-11-05T11:37:58.741Z,8.32
2022-11-05T11:40:32.954Z,8.52
2022-11-05T11:43:07.267Z,8.38
2022-11-05T11:45:45.847Z,9.07
2022-11-05T11:48:19.237Z,9.23
2022-11-05T11:50:49.760Z,9.63
2022-11-05T11:53:28.224Z,9.00
2022-11-05T11:56:03.626Z,9.75
2022-11-05T11:58:44.296Z,8.88
2022-11-05T12:01:48.910Z,9.13
2022-11-05T12:04:35.484Z,8.10
2022-11-05T12:07:18.414Z,8.55
2022-11-05T12:10:04.599Z,8.43
2022-11-05T12:12:43.632Z,8.80
2022-11-05T12:15:28.949Z,8.45
2022-11-05T12:18:02.941Z,8.23
2022-11-05T12:20:52.713Z,6.90
2022-11-05T12:23:53.414Z,7.35
2022-11-05T12:26:32.610Z,6.90
2022-11-05T12:29:22.968Z,7.15
2022-11-05T12:32:03.075Z,6.75
2022-11-05T12:34:47.529Z,7.65
2022-11-05T12:40:05.666Z,5.97
2022-11-05T12:42:46.797Z,5.57
2022-11-05T12:45:27.405Z,6.60
2022-11-05T12:48:10.377Z,7.13
2022-11-05T12:50:44.232Z,5.82
2022-11-05T12:53:41.888Z,5.22
2022-11-05T12:56:17.031Z,6.25
2022-11-05T12:58:49.429Z,5.68
2022-11-05T13:01:22.618Z,6.00
2022-11-05T13:03:57.432Z,6.60
2022-11-05T13:06:33.241Z,5.57
2022-11-05T13:09:07.499Z,6.90
2022-11-05T13:11:42.292Z,5.78
2022-11-05T13:14:16.137Z,5.40
2022-11-05T13:16:49.535Z,5.68
2022-11-05T13:19:23.304Z,5.25
2022-11-05T13:21:56.225Z,5.30
2022-11-05T13:24:30.906Z,4.90
2022-11-05T13:27:05.164Z,5.53
2022-11-05T13:29:40.644Z,5.20
2022-11-05T13:32:19.126Z,5.88
2022-11-05T13:34:49.422Z,5.80
2022-11-05T13:37:41.997Z,5.57
2022-11-05T13:40:17.400Z,5.63
2022-11-05T13:43:04.885Z,5.40
2022-11-05T13:46:06.935Z,5.10
2022-11-05T13:49:09.905Z,6.25
2022-11-05T13:51:55.172Z,6.55
2022-11-05T13:55:02.004Z,6.13
2022-11-05T13:57:54.218Z,5.18
2022-11-05T14:00:24.975Z,6.38
2022-11-05T14:02:57.964Z,5.82
2022-11-05T14:05:32.120Z,5.53
2022-11-05T14:10:37.727Z,5.78
2022-11-05T14:13:21.556Z,5.15
2022-11-05T14:16:03.117Z,5.82
2022-11-05T14:18:45.205Z,5.55
2022-11-05T14:21:47.880Z,6.00
2022-11-05T14:24:44.786Z,4.95
2022-11-05T14:27:44.157Z,5.10
2022-11-05T14:30:47.073Z,4.97
2022-11-05T14:33:20.287Z,4.57
2022-11-05T14:35:50.181Z,5.17
2022-11-05T14:38:25.399Z,4.53
2022-11-05T14:41:03.649Z,3.65
2022-11-05T14:43:36.817Z,4.18
2022-11-05T14:46:08.612Z,3.90
2022-11-05T14:48:41.679Z,3.90
2022-11-05T14:51:28.413Z,3.75
2022-11-05T14:54:04.810Z,3.35
2022-11-05T14:56:45.353Z,3.33
2022-11-05T14:59:37.057Z,3.00
2022-11-05T15:02:13.868Z,3.28
2022-11-05T15:04:45.824Z,3.85
2022-11-05T15:07:37.750Z,3.17
2022-11-05T15:10:14.286Z,4.18
2022-11-05T15:12:47.448Z,4.18
2022-11-05T15:15:42.557Z,4.33
2022-11-05T15:18:18.883Z,4.05
2022-11-05T15:20:51.361Z,3.97
2022-11-05T15:23:23.787Z,3.83
2022-11-05T15:25:56.980Z,2.97
2022-11-05T15:28:36.443Z,3.40
2022-11-05T15:31:07.956Z,3.92
2022-11-05T15:33:38.366Z,3.88
2022-11-05T15:36:13.729Z,3.35
2022-11-05T15:39:02.021Z,3.85
2022-11-05T15:41:34.818Z,4.28
2022-11-05T15:44:03.810Z,4.05
2022-11-05T15:46:32.642Z,4.97
2022-11-05T15:49:07.001Z,3.72
2022-11-05T15:51:36.377Z,4.03
2022-11-05T15:54:29.003Z,3.90
2022-11-05T15:56:58.768Z,4.43
2022-11-05T15:59:30.411Z,5.07
2022-11-05T16:02:06.891Z,4.45
2022-11-05T16:04:38.131Z,4.82
2022-11-05T16:07:11.779Z,4.43
2022-11-05T16:09:44.167Z,4.38
2022-11-05T16:12:33.243Z,4.47
2022-11-05T16:15:05.974Z,4.88
2022-11-05T16:17:48.148Z,4.63
2022-11-05T16:20:27.846Z,5.20
2022-11-05T16:22:59.092Z,6.30
2022-11-05T16:25:42.957Z,5.68
2022-11-05T16:28:24.119Z,6.60
2022-11-05T16:30:58.014Z,5.05
2022-11-05T16:33:27.639Z,5.47
2022-11-05T16:35:58.976Z,5.88
2022-11-05T16:38:28.329Z,6.38
2022-11-05T16:40:57.133Z,6.80
2022-11-05T16:43:26.916Z,6.88
2022-11-05T16:45:58.142Z,6.38
2022-11-05T16:48:27.468Z,5.43
2022-11-05T16:50:58.509Z,5.63
2022-11-05T16:53:27.195Z,6.22
2022-11-05T16:55:55.738Z,6.43
2022-11-05T16:58:27.741Z,8.05
2022-11-05T17:01:02.370Z,7.18
2022-11-05T17:03:31.021Z,7.93
2022-11-05T17:06:02.168Z,8.60
2022-11-05T17:08:31.163Z,7.43
2022-11-05T17:10:59.907Z,8.23
2022-11-05T17:13:28.448Z,6.25
2022-11-05T17:15:56.928Z,6.95
2022-11-05T17:18:26.223Z,6.30
2022-11-05T17:20:57.616Z,6.57
2022-11-05T17:23:30.352Z,6.65
2022-11-05T17:26:03.772Z,5.65
2022-11-05T17:28:33.630Z,5.40
2022-11-05T17:31:03.180Z,5.93
2022-11-05T17:33:32.583Z,5.50
2022-11-05T17:36:02.053Z,5.25
2022-11-05T17:38:32.419Z,6.35
2022-11-05T17:41:01.865Z,6.35
2022-11-05T17:43:30.144Z,5.28
2022-11-05T17:46:04.086Z,6.28
2022-11-05T17:48:33.324Z,6.57
2022-11-05T17:51:01.917Z,6.47
2022-11-05T17:53:32.047Z,6.45
2022-11-05T17:56:00.690Z,7.55
2022-11-05T17:58:29.210Z,8.05
2022-11-05T18:00:58.628Z,6.00
2022-11-05T18:03:27.366Z,6.38
2022-11-05T18:05:55.768Z,7.28
2022-11-05T18:08:24.069Z,5.70
2022-11-05T18:10:55.439Z,6.03
2022-11-05T18:13:24.177Z,6.18
2022-11-05T18:15:54.137Z,6.13
2022-11-05T18:18:23.282Z,5.70
2022-11-05T18:20:51.997Z,5.97
2022-11-05T18:23:21.484Z,5.47
2022-11-05T18:25:49.946Z,5.93
2022-11-05T18:28:20.050Z,6.68
2022-11-05T18:30:48.704Z,5.82
2022-11-05T18:33:19.020Z,5.82
2022-11-05T18:35:47.934Z,5.85
2022-11-05T18:38:16.643Z,5.47
2022-11-05T18:40:45.985Z,5.32
2022-11-05T18:43:14.992Z,5.15
2022-11-05T18:45:44.895Z,4.30
2022-11-05T18:48:13.799Z,5.30
2022-11-05T18:50:42.427Z,5.63
2022-11-05T18:53:10.956Z,4.75
2022-11-05T18:55:40.615Z,4.90
2022-11-05T18:58:09.082Z,5.22
2022-11-05T19:00:40.617Z,4.53
2022-11-05T19:03:11.022Z,6.45
2022-11-05T19:05:39.348Z,4.50
2022-11-05T19:08:07.850Z,4.90
2022-11-05T19:10:37.000Z,5.47
2022-11-05T19:13:05.410Z,5.05
2022-11-05T19:15:35.899Z,5.03
2022-11-05T19:18:04.329Z,6.32
2022-11-05T19:20:37.814Z,5.85
2022-11-05T19:23:06.994Z,5.43
2022-11-05T19:25:38.150Z,5.30
2022-11-05T19:28:06.610Z,5.75
2022-11-05T19:30:35.069Z,4.95
2022-11-05T19:33:03.422Z,5.43
2022-11-05T19:35:38.339Z,5.18
2022-11-05T19:38:09.621Z,5.60
2022-11-05T19:40:38.872Z,6.47
2022-11-05T19:43:08.754Z,6.43
2022-11-05T19:45:45.061Z,7.18
2022-11-05T19:48:19.081Z,6.85
2022-11-05T19:50:50.434Z,6.78
2022-11-05T19:53:19.075Z,6.38
2022-11-05T19:55:47.701Z,6.43
2022-11-05T19:58:16.324Z,6.07
2022-11-05T20:00:45.377Z,6.78
2022-11-05T20:03:13.736Z,6.43
2022-11-05T20:05:42.339Z,7.90
2022-11-05T20:08:13.351Z,6.65
2022-11-05T20:10:42.293Z,6.85
2022-11-05T20:13:13.225Z,7.30
2022-11-05T20:15:46.810Z,7.90
2022-11-05T20:18:17.456Z,8.43
2022-11-05T20:20:46.414Z,8.18
2022-11-05T20:23:16.580Z,6.95
2022-11-05T20:25:45.146Z,8.38
2022-11-05T20:28:13.844Z,7.30
2022-11-05T20:30:42.589Z,7.15
2022-11-05T20:33:11.206Z,8.82
2022-11-05T20:35:40.969Z,8.00
2022-11-05T20:38:09.848Z,8.85
2022-11-05T20:40:42.378Z,8.65
2022-11-05T20:43:10.932Z,8.13
2022-11-05T20:45:40.331Z,7.78
2022-11-05T20:48:09.427Z,8.63
2022-11-05T20:50:41.842Z,7.75
2022-11-05T20:53:10.616Z,9.05
2022-11-05T20:55:46.036Z,8.15
2022-11-05T20:58:16.006Z,10.02
2022-11-05T21:00:51.417Z,9.90
2022-11-05T21:03:21.565Z,12.07
2022-11-05T21:05:54.720Z,10.10
2022-11-05T21:08:24.165Z,9.00
2022-11-05T21:10:54.147Z,8.90
2022-11-05T21:13:23.579Z,9.25
2022-11-05T21:15:54.790Z,9.13
2022-11-05T21:18:24.853Z,14.77
2022-11-05T21:20:54.551Z,12.63
2022-11-05T21:23:23.036Z,11.15
2022-11-05T21:25:51.712Z,10.85
2022-11-05T21:28:21.518Z,13.15
2022-11-05T21:30:49.908Z,19.77
2022-11-05T21:33:19.707Z,29.95
2022-11-05T21:35:49.807Z,59.08
2022-11-05T21:38:19.469Z,12.18
2022-11-05T21:40:48.796Z,16.17
2022-11-05T21:43:17.466Z,27.17
2022-11-05T21:45:47.723Z,12.30
2022-11-05T21:48:16.529Z,15.05
2022-11-05T21:51:02.303Z,17.33
2022-11-05T21:53:48.763Z,17.67
2022-11-05T21:56:37.321Z,26.42
2022-11-05T21:59:23.346Z,37.10
2022-11-05T22:02:01.713Z,31.63
2022-11-05T22:04:31.233Z,18.90
2022-11-05T22:06:59.672Z,17.90
2022-11-05T22:09:28.794Z,12.77
2022-11-05T22:11:57.774Z,13.18
2022-11-05T22:14:26.575Z,17.95
2022-11-05T22:16:57.445Z,17.15
2022-11-05T22:19:26.539Z,22.67
2022-11-05T22:21:54.789Z,24.95
2022-11-05T22:24:23.728Z,26.98
2022-11-05T22:26:52.605Z,14.48
2022-11-05T22:29:21.612Z,15.63
2022-11-05T22:31:50.183Z,25.63
2022-11-05T22:34:20.727Z,40.05
2022-11-05T22:36:49.206Z,50.03
2022-11-05T22:39:17.608Z,39.17
2022-11-05T22:41:46.434Z,59.85
2022-11-05T22:44:16.708Z,42.10
2022-11-05T22:46:45.379Z,27.38
2022-11-05T22:49:14.317Z,19.23
2022-11-05T22:51:44.600Z,33.75
2022-11-05T22:54:13.214Z,92.15
2022-11-05T22:56:43.666Z,31.15
2022-11-05T22:59:14.600Z,35.90
2022-11-05T23:01:44.112Z,21.15
2022-11-05T23:04:13.735Z,54.35
2022-11-05T23:07:01.325Z,36.25
2022-11-05T23:09:49.460Z,62.15
2022-11-05T23:12:23.985Z,25.60
2022-11-05T23:14:52.562Z,42.28
2022-11-05T23:17:38.509Z,36.03
2022-11-05T23:20:26.151Z,31.70
2022-11-05T23:23:13.103Z,34.95
2022-11-05T23:25:41.852Z,55.00
2022-11-05T23:28:12.236Z,99.68
2022-11-05T23:31:05.675Z,61.67
2022-11-05T23:33:34.744Z,45.08
2022-11-05T23:36:21.038Z,30.48
2022-11-05T23:38:50.980Z,46.55
2022-11-05T23:41:36.636Z,51.90
2022-11-05T23:44:21.600Z,24.50
2022-11-05T23:47:07.731Z,33.97
2022-11-05T23:49:37.065Z,56.15
2022-11-05T23:52:06.104Z,35.28
2022-11-05T23:54:36.004Z,27.40
2022-11-05T23:57:05.127Z,18.98
2022-11-05T23:59:36.159Z,27.23
